sensor_id;sensor_type;location;lat;lon;timestamp;temperature;humidity
75372;HTU21D;63956;52.006;5.878;2022-10-17T00:01:43;16.43;72.43
75372;HTU21D;63956;52.006;5.878;2022-10-17T00:04:12;16.44;72.41
75372;HTU21D;63956;52.006;5.878;2022-10-17T00:06:41;16.44;72.50
75372;HTU21D;63956;52.006;5.878;2022-10-17T00:09:10;16.44;72.38
75372;HTU21D;63956;52.006;5.878;2022-10-17T00:11:42;16.45;72.38
75372;HTU21D;63956;52.006;5.878;2022-10-17T00:14:11;16.45;72.51
75372;HTU21D;63956;52.006;5.878;2022-10-17T00:16:40;16.45;72.44
75372;HTU21D;63956;52.006;5.878;2022-10-17T00:19:09;16.44;72.60
75372;HTU21D;63956;52.006;5.878;2022-10-17T00:21:38;16.46;72.83
75372;HTU21D;63956;52.006;5.878;2022-10-17T00:24:07;16.46;72.87
75372;HTU21D;63956;52.006;5.878;2022-10-17T00:26:37;16.49;72.64
75372;HTU21D;63956;52.006;5.878;2022-10-17T00:29:08;16.51;72.75
75372;HTU21D;63956;52.006;5.878;2022-10-17T00:31:37;16.50;72.98
75372;HTU21D;63956;52.006;5.878;2022-10-17T00:34:06;16.54;72.95
75372;HTU21D;63956;52.006;5.878;2022-10-17T00:36:36;16.55;72.95
75372;HTU21D;63956;52.006;5.878;2022-10-17T00:39:05;16.54;73.03
75372;HTU21D;63956;52.006;5.878;2022-10-17T00:41:34;16.57;73.02
75372;HTU21D;63956;52.006;5.878;2022-10-17T00:46:52;16.59;73.11
75372;HTU21D;63956;52.006;5.878;2022-10-17T00:49:22;16.59;72.97
75372;HTU21D;63956;52.006;5.878;2022-10-17T00:51:54;16.61;73.13
75372;HTU21D;63956;52.006;5.878;2022-10-17T00:54:26;16.62;72.96
75372;HTU21D;63956;52.006;5.878;2022-10-17T00:56:56;16.62;72.93
75372;HTU21D;63956;52.006;5.878;2022-10-17T00:59:27;16.61;73.12
75372;HTU21D;63956;52.006;5.878;2022-10-17T01:02:04;16.63;73.03
75372;HTU21D;63956;52.006;5.878;2022-10-17T01:04:34;16.63;73.15
75372;HTU21D;63956;52.006;5.878;2022-10-17T01:07:04;16.64;73.16
75372;HTU21D;63956;52.006;5.878;2022-10-17T01:09:33;16.65;73.25
75372;HTU21D;63956;52.006;5.878;2022-10-17T01:12:10;16.69;73.41
75372;HTU21D;63956;52.006;5.878;2022-10-17T01:14:49;16.72;73.23
75372;HTU21D;63956;52.006;5.878;2022-10-17T01:17:28;16.71;73.30
75372;HTU21D;63956;52.006;5.878;2022-10-17T01:20:26;16.74;73.25
75372;HTU21D;63956;52.006;5.878;2022-10-17T01:23:09;16.74;73.17
75372;HTU21D;63956;52.006;5.878;2022-10-17T01:25:52;16.75;73.42
75372;HTU21D;63956;52.006;5.878;2022-10-17T01:28:45;16.76;73.40
75372;HTU21D;63956;52.006;5.878;2022-10-17T01:31:28;16.74;73.63
75372;HTU21D;63956;52.006;5.878;2022-10-17T01:34:04;16.74;73.60
75372;HTU21D;63956;52.006;5.878;2022-10-17T01:36:42;16.76;73.70
75372;HTU21D;63956;52.006;5.878;2022-10-17T01:39:16;16.76;73.70
75372;HTU21D;63956;52.006;5.878;2022-10-17T01:41:51;16.76;73.77
75372;HTU21D;63956;52.006;5.878;2022-10-17T01:44:27;16.76;73.75
75372;HTU21D;63956;52.006;5.878;2022-10-17T01:47:04;16.78;73.66
75372;HTU21D;63956;52.006;5.878;2022-10-17T01:49:34;16.79;73.70
75372;HTU21D;63956;52.006;5.878;2022-10-17T01:52:07;16.82;73.77
75372;HTU21D;63956;52.006;5.878;2022-10-17T01:54:40;16.85;73.61
75372;HTU21D;63956;52.006;5.878;2022-10-17T01:57:17;16.87;73.51
75372;HTU21D;63956;52.006;5.878;2022-10-17T01:59:51;16.89;73.57
75372;HTU21D;63956;52.006;5.878;2022-10-17T02:02:24;16.91;73.67
75372;HTU21D;63956;52.006;5.878;2022-10-17T02:04:56;16.91;73.76
75372;HTU21D;63956;52.006;5.878;2022-10-17T02:07:25;16.93;73.46
75372;HTU21D;63956;52.006;5.878;2022-10-17T02:09:54;16.93;73.52
75372;HTU21D;63956;52.006;5.878;2022-10-17T02:12:44;16.98;73.49
75372;HTU21D;63956;52.006;5.878;2022-10-17T02:15:27;16.99;73.56
75372;HTU21D;63956;52.006;5.878;2022-10-17T02:18:14;16.99;73.64
75372;HTU21D;63956;52.006;5.878;2022-10-17T02:20:50;17.01;73.75
75372;HTU21D;63956;52.006;5.878;2022-10-17T02:23:26;17.03;73.69
75372;HTU21D;63956;52.006;5.878;2022-10-17T02:26:02;17.05;73.62
75372;HTU21D;63956;52.006;5.878;2022-10-17T02:28:39;17.06;73.76
75372;HTU21D;63956;52.006;5.878;2022-10-17T02:31:13;17.04;73.93
75372;HTU21D;63956;52.006;5.878;2022-10-17T02:33:50;17.07;74.02
75372;HTU21D;63956;52.006;5.878;2022-10-17T02:36:26;17.08;73.83
75372;HTU21D;63956;52.006;5.878;2022-10-17T02:38:58;17.09;73.77
75372;HTU21D;63956;52.006;5.878;2022-10-17T02:41:29;17.09;73.85
75372;HTU21D;63956;52.006;5.878;2022-10-17T02:44:01;17.08;73.83
75372;HTU21D;63956;52.006;5.878;2022-10-17T02:46:31;17.08;74.06
75372;HTU21D;63956;52.006;5.878;2022-10-17T02:49:07;17.09;73.98
75372;HTU21D;63956;52.006;5.878;2022-10-17T02:51:43;17.06;74.13
75372;HTU21D;63956;52.006;5.878;2022-10-17T02:54:19;17.08;74.04
75372;HTU21D;63956;52.006;5.878;2022-10-17T02:56:53;17.09;74.04
75372;HTU21D;63956;52.006;5.878;2022-10-17T02:59:24;17.09;74.05
75372;HTU21D;63956;52.006;5.878;2022-10-17T03:01:54;17.13;74.24
75372;HTU21D;63956;52.006;5.878;2022-10-17T03:04:26;17.13;74.18
75372;HTU21D;63956;52.006;5.878;2022-10-17T03:06:55;17.14;74.15
75372;HTU21D;63956;52.006;5.878;2022-10-17T03:09:24;17.15;74.13
75372;HTU21D;63956;52.006;5.878;2022-10-17T03:11:54;17.14;74.19
75372;HTU21D;63956;52.006;5.878;2022-10-17T03:14:23;17.17;74.27
75372;HTU21D;63956;52.006;5.878;2022-10-17T03:16:52;17.18;74.02
75372;HTU21D;63956;52.006;5.878;2022-10-17T03:19:21;17.23;73.91
75372;HTU21D;63956;52.006;5.878;2022-10-17T03:21:54;17.24;74.15
75372;HTU21D;63956;52.006;5.878;2022-10-17T03:24:23;17.23;73.97
75372;HTU21D;63956;52.006;5.878;2022-10-17T03:26:53;17.24;74.01
75372;HTU21D;63956;52.006;5.878;2022-10-17T03:29:22;17.25;73.99
75372;HTU21D;63956;52.006;5.878;2022-10-17T03:31:52;17.29;74.02
75372;HTU21D;63956;52.006;5.878;2022-10-17T03:34:22;17.28;74.01
75372;HTU21D;63956;52.006;5.878;2022-10-17T03:36:54;17.29;73.96
75372;HTU21D;63956;52.006;5.878;2022-10-17T03:39:25;17.26;73.79
75372;HTU21D;63956;52.006;5.878;2022-10-17T03:41:55;17.28;73.84
75372;HTU21D;63956;52.006;5.878;2022-10-17T03:44:24;17.26;73.84
75372;HTU21D;63956;52.006;5.878;2022-10-17T03:46:54;17.26;73.73
75372;HTU21D;63956;52.006;5.878;2022-10-17T03:49:23;17.29;73.68
75372;HTU21D;63956;52.006;5.878;2022-10-17T03:51:55;17.30;73.61
75372;HTU21D;63956;52.006;5.878;2022-10-17T03:54:26;17.29;73.50
75372;HTU21D;63956;52.006;5.878;2022-10-17T03:56:55;17.28;73.50
75372;HTU21D;63956;52.006;5.878;2022-10-17T03:59:24;17.29;73.70
75372;HTU21D;63956;52.006;5.878;2022-10-17T04:02:01;17.28;73.73
75372;HTU21D;63956;52.006;5.878;2022-10-17T04:04:30;17.28;73.64
75372;HTU21D;63956;52.006;5.878;2022-10-17T04:07:02;17.29;73.77
75372;HTU21D;63956;52.006;5.878;2022-10-17T04:09:33;17.24;73.90
75372;HTU21D;63956;52.006;5.878;2022-10-17T04:12:08;17.28;73.80
75372;HTU21D;63956;52.006;5.878;2022-10-17T04:14:38;17.30;73.67
75372;HTU21D;63956;52.006;5.878;2022-10-17T04:17:07;17.31;73.86
75372;HTU21D;63956;52.006;5.878;2022-10-17T04:19:38;17.31;73.86
75372;HTU21D;63956;52.006;5.878;2022-10-17T04:22:10;17.32;73.86
75372;HTU21D;63956;52.006;5.878;2022-10-17T04:24:41;17.34;73.82
75372;HTU21D;63956;52.006;5.878;2022-10-17T04:27:19;17.36;73.67
75372;HTU21D;63956;52.006;5.878;2022-10-17T04:29:49;17.36;73.70
75372;HTU21D;63956;52.006;5.878;2022-10-17T04:32:23;17.37;73.68
75372;HTU21D;63956;52.006;5.878;2022-10-17T04:35:01;17.36;73.73
75372;HTU21D;63956;52.006;5.878;2022-10-17T04:37:34;17.39;73.67
75372;HTU21D;63956;52.006;5.878;2022-10-17T04:40:10;17.38;73.83
75372;HTU21D;63956;52.006;5.878;2022-10-17T04:42:40;17.39;73.83
75372;HTU21D;63956;52.006;5.878;2022-10-17T04:45:11;17.39;73.68
75372;HTU21D;63956;52.006;5.878;2022-10-17T04:47:41;17.41;73.65
75372;HTU21D;63956;52.006;5.878;2022-10-17T04:50:10;17.44;73.45
75372;HTU21D;63956;52.006;5.878;2022-10-17T04:52:43;17.46;73.34
75372;HTU21D;63956;52.006;5.878;2022-10-17T04:55:12;17.47;73.19
75372;HTU21D;63956;52.006;5.878;2022-10-17T04:57:41;17.49;73.41
75372;HTU21D;63956;52.006;5.878;2022-10-17T05:00:16;17.46;73.32
75372;HTU21D;63956;52.006;5.878;2022-10-17T05:02:58;17.46;73.25
75372;HTU21D;63956;52.006;5.878;2022-10-17T05:05:29;17.47;73.29
75372;HTU21D;63956;52.006;5.878;2022-10-17T05:08:01;17.46;73.31
75372;HTU21D;63956;52.006;5.878;2022-10-17T05:10:35;17.47;73.28
75372;HTU21D;63956;52.006;5.878;2022-10-17T05:13:05;17.45;73.46
75372;HTU21D;63956;52.006;5.878;2022-10-17T05:15:36;17.44;73.37
75372;HTU21D;63956;52.006;5.878;2022-10-17T05:18:06;17.43;73.35
75372;HTU21D;63956;52.006;5.878;2022-10-17T05:20:36;17.41;73.25
75372;HTU21D;63956;52.006;5.878;2022-10-17T05:23:08;17.43;73.26
75372;HTU21D;63956;52.006;5.878;2022-10-17T05:25:41;17.38;73.18
75372;HTU21D;63956;52.006;5.878;2022-10-17T05:28:11;17.39;73.23
75372;HTU21D;63956;52.006;5.878;2022-10-17T05:30:41;17.37;73.35
75372;HTU21D;63956;52.006;5.878;2022-10-17T05:33:11;17.38;73.48
75372;HTU21D;63956;52.006;5.878;2022-10-17T05:35:40;17.39;73.49
75372;HTU21D;63956;52.006;5.878;2022-10-17T05:38:12;17.43;73.50
75372;HTU21D;63956;52.006;5.878;2022-10-17T05:40:43;17.45;73.61
75372;HTU21D;63956;52.006;5.878;2022-10-17T05:43:13;17.48;73.56
75372;HTU21D;63956;52.006;5.878;2022-10-17T05:45:44;17.53;73.51
75372;HTU21D;63956;52.006;5.878;2022-10-17T05:48:18;17.58;73.62
75372;HTU21D;63956;52.006;5.878;2022-10-17T05:50:48;17.64;73.68
75372;HTU21D;63956;52.006;5.878;2022-10-17T05:53:21;17.67;73.77
75372;HTU21D;63956;52.006;5.878;2022-10-17T05:55:56;17.70;73.62
75372;HTU21D;63956;52.006;5.878;2022-10-17T05:58:26;17.69;73.50
75372;HTU21D;63956;52.006;5.878;2022-10-17T06:00:57;17.72;73.41
75372;HTU21D;63956;52.006;5.878;2022-10-17T06:03:27;17.73;73.40
75372;HTU21D;63956;52.006;5.878;2022-10-17T06:06:02;17.73;73.49
75372;HTU21D;63956;52.006;5.878;2022-10-17T06:08:34;17.74;73.57
75372;HTU21D;63956;52.006;5.878;2022-10-17T06:11:05;17.76;73.60
75372;HTU21D;63956;52.006;5.878;2022-10-17T06:13:34;17.79;73.58
75372;HTU21D;63956;52.006;5.878;2022-10-17T06:16:10;17.79;73.50
75372;HTU21D;63956;52.006;5.878;2022-10-17T06:18:39;17.82;73.42
75372;HTU21D;63956;52.006;5.878;2022-10-17T06:21:09;17.84;73.45
75372;HTU21D;63956;52.006;5.878;2022-10-17T06:23:46;17.85;73.44
75372;HTU21D;63956;52.006;5.878;2022-10-17T06:26:21;17.87;73.34
75372;HTU21D;63956;52.006;5.878;2022-10-17T06:28:52;17.87;73.44
75372;HTU21D;63956;52.006;5.878;2022-10-17T06:31:22;17.87;73.41
75372;HTU21D;63956;52.006;5.878;2022-10-17T06:33:52;17.89;73.50
75372;HTU21D;63956;52.006;5.878;2022-10-17T06:36:22;17.92;73.39
75372;HTU21D;63956;52.006;5.878;2022-10-17T06:38:53;17.95;73.26
75372;HTU21D;63956;52.006;5.878;2022-10-17T06:41:37;17.96;73.22
75372;HTU21D;63956;52.006;5.878;2022-10-17T06:44:09;17.96;73.16
75372;HTU21D;63956;52.006;5.878;2022-10-17T06:46:50;17.97;73.12
75372;HTU21D;63956;52.006;5.878;2022-10-17T06:49:21;17.98;73.22
75372;HTU21D;63956;52.006;5.878;2022-10-17T06:52:10;17.98;73.22
75372;HTU21D;63956;52.006;5.878;2022-10-17T06:54:56;18.02;73.15
75372;HTU21D;63956;52.006;5.878;2022-10-17T06:57:40;18.04;73.06
75372;HTU21D;63956;52.006;5.878;2022-10-17T07:00:39;18.04;73.03
75372;HTU21D;63956;52.006;5.878;2022-10-17T07:03:09;18.06;72.98
75372;HTU21D;63956;52.006;5.878;2022-10-17T07:05:38;18.08;73.09
75372;HTU21D;63956;52.006;5.878;2022-10-17T07:08:08;18.09;73.02
75372;HTU21D;63956;52.006;5.878;2022-10-17T07:10:40;18.12;73.04
75372;HTU21D;63956;52.006;5.878;2022-10-17T07:13:10;18.14;73.04
75372;HTU21D;63956;52.006;5.878;2022-10-17T07:15:39;18.17;73.07
75372;HTU21D;63956;52.006;5.878;2022-10-17T07:18:09;18.21;72.99
75372;HTU21D;63956;52.006;5.878;2022-10-17T07:20:38;18.28;73.02
75372;HTU21D;63956;52.006;5.878;2022-10-17T07:23:08;18.30;72.99
75372;HTU21D;63956;52.006;5.878;2022-10-17T07:25:40;18.36;72.99
75372;HTU21D;63956;52.006;5.878;2022-10-17T07:28:09;18.41;72.83
75372;HTU21D;63956;52.006;5.878;2022-10-17T07:30:39;18.48;72.80
75372;HTU21D;63956;52.006;5.878;2022-10-17T07:33:11;18.54;72.80
75372;HTU21D;63956;52.006;5.878;2022-10-17T07:35:40;18.61;72.70
75372;HTU21D;63956;52.006;5.878;2022-10-17T07:38:10;18.66;72.65
75372;HTU21D;63956;52.006;5.878;2022-10-17T07:40:42;18.74;72.54
75372;HTU21D;63956;52.006;5.878;2022-10-17T07:43:11;18.81;72.61
75372;HTU21D;63956;52.006;5.878;2022-10-17T07:45:40;18.86;72.54
75372;HTU21D;63956;52.006;5.878;2022-10-17T07:48:09;18.91;72.42
75372;HTU21D;63956;52.006;5.878;2022-10-17T07:50:38;18.94;72.26
75372;HTU21D;63956;52.006;5.878;2022-10-17T07:53:07;18.95;72.37
75372;HTU21D;63956;52.006;5.878;2022-10-17T07:55:37;18.97;72.28
75372;HTU21D;63956;52.006;5.878;2022-10-17T07:58:09;18.98;72.35
75372;HTU21D;63956;52.006;5.878;2022-10-17T08:00:39;18.99;72.27
75372;HTU21D;63956;52.006;5.878;2022-10-17T08:03:09;18.98;72.22
75372;HTU21D;63956;52.006;5.878;2022-10-17T08:05:38;18.99;72.19
75372;HTU21D;63956;52.006;5.878;2022-10-17T08:08:07;18.99;72.16
75372;HTU21D;63956;52.006;5.878;2022-10-17T08:10:36;18.97;72.19
75372;HTU21D;63956;52.006;5.878;2022-10-17T08:13:06;18.94;72.32
75372;HTU21D;63956;52.006;5.878;2022-10-17T08:15:37;18.92;72.52
75372;HTU21D;63956;52.006;5.878;2022-10-17T08:18:07;18.91;72.59
75372;HTU21D;63956;52.006;5.878;2022-10-17T08:20:36;18.89;72.77
75372;HTU21D;63956;52.006;5.878;2022-10-17T08:23:05;18.85;73.09
75372;HTU21D;63956;52.006;5.878;2022-10-17T08:25:37;18.79;73.56
75372;HTU21D;63956;52.006;5.878;2022-10-17T08:28:06;18.68;74.06
75372;HTU21D;63956;52.006;5.878;2022-10-17T08:30:38;18.56;74.59
75372;HTU21D;63956;52.006;5.878;2022-10-17T08:33:07;18.49;74.86
75372;HTU21D;63956;52.006;5.878;2022-10-17T08:35:36;18.41;75.24
75372;HTU21D;63956;52.006;5.878;2022-10-17T08:38:05;18.38;75.60
75372;HTU21D;63956;52.006;5.878;2022-10-17T08:40:34;18.36;75.63
75372;HTU21D;63956;52.006;5.878;2022-10-17T08:43:21;18.40;75.47
75372;HTU21D;63956;52.006;5.878;2022-10-17T08:45:58;18.40;75.67
75372;HTU21D;63956;52.006;5.878;2022-10-17T08:48:30;18.37;75.86
75372;HTU21D;63956;52.006;5.878;2022-10-17T08:51:04;18.35;75.95
75372;HTU21D;63956;52.006;5.878;2022-10-17T08:53:38;18.36;75.98
75372;HTU21D;63956;52.006;5.878;2022-10-17T08:56:15;18.35;75.99
75372;HTU21D;63956;52.006;5.878;2022-10-17T08:58:45;18.32;76.27
75372;HTU21D;63956;52.006;5.878;2022-10-17T09:01:28;18.28;76.33
75372;HTU21D;63956;52.006;5.878;2022-10-17T09:07:07;18.21;76.84
75372;HTU21D;63956;52.006;5.878;2022-10-17T09:09:43;18.20;77.05
75372;HTU21D;63956;52.006;5.878;2022-10-17T09:12:17;18.22;77.15
75372;HTU21D;63956;52.006;5.878;2022-10-17T09:17:53;18.27;77.02
75372;HTU21D;63956;52.006;5.878;2022-10-17T09:20:25;18.24;77.12
75372;HTU21D;63956;52.006;5.878;2022-10-17T09:22:58;18.28;77.06
75372;HTU21D;63956;52.006;5.878;2022-10-17T09:25:27;18.35;76.88
75372;HTU21D;63956;52.006;5.878;2022-10-17T09:28:05;18.40;76.78
75372;HTU21D;63956;52.006;5.878;2022-10-17T09:30:42;18.41;76.81
75372;HTU21D;63956;52.006;5.878;2022-10-17T09:33:16;18.42;76.90
75372;HTU21D;63956;52.006;5.878;2022-10-17T09:35:46;18.40;76.92
75372;HTU21D;63956;52.006;5.878;2022-10-17T09:38:18;18.40;77.08
75372;HTU21D;63956;52.006;5.878;2022-10-17T09:40:53;18.39;77.13
75372;HTU21D;63956;52.006;5.878;2022-10-17T09:43:22;18.40;77.10
75372;HTU21D;63956;52.006;5.878;2022-10-17T09:46:01;18.43;76.97
75372;HTU21D;63956;52.006;5.878;2022-10-17T09:48:38;18.43;77.07
75372;HTU21D;63956;52.006;5.878;2022-10-17T09:51:08;18.38;77.28
75372;HTU21D;63956;52.006;5.878;2022-10-17T09:53:39;18.35;77.44
75372;HTU21D;63956;52.006;5.878;2022-10-17T09:56:11;18.36;77.47
75372;HTU21D;63956;52.006;5.878;2022-10-17T09:58:43;18.34;77.64
75372;HTU21D;63956;52.006;5.878;2022-10-17T10:01:18;18.35;77.69
75372;HTU21D;63956;52.006;5.878;2022-10-17T10:04:10;18.40;77.35
75372;HTU21D;63956;52.006;5.878;2022-10-17T10:06:40;18.43;77.40
75372;HTU21D;63956;52.006;5.878;2022-10-17T10:09:21;18.50;77.21
75372;HTU21D;63956;52.006;5.878;2022-10-17T10:11:54;18.55;77.20
75372;HTU21D;63956;52.006;5.878;2022-10-17T10:14:28;18.62;77.10
75372;HTU21D;63956;52.006;5.878;2022-10-17T10:16:58;18.76;76.40
75372;HTU21D;63956;52.006;5.878;2022-10-17T10:19:31;18.71;76.73
75372;HTU21D;63956;52.006;5.878;2022-10-17T10:22:03;18.68;76.82
75372;HTU21D;63956;52.006;5.878;2022-10-17T10:24:32;18.65;77.00
75372;HTU21D;63956;52.006;5.878;2022-10-17T10:27:03;18.63;77.11
75372;HTU21D;63956;52.006;5.878;2022-10-17T10:29:35;18.63;77.06
75372;HTU21D;63956;52.006;5.878;2022-10-17T10:32:10;18.66;77.00
75372;HTU21D;63956;52.006;5.878;2022-10-17T10:34:44;18.78;76.39
75372;HTU21D;63956;52.006;5.878;2022-10-17T10:37:18;18.74;76.56
75372;HTU21D;63956;52.006;5.878;2022-10-17T10:39:49;18.72;76.70
75372;HTU21D;63956;52.006;5.878;2022-10-17T10:42:27;18.77;76.61
75372;HTU21D;63956;52.006;5.878;2022-10-17T10:45:03;18.77;76.68
75372;HTU21D;63956;52.006;5.878;2022-10-17T10:47:33;18.81;76.60
75372;HTU21D;63956;52.006;5.878;2022-10-17T10:50:20;18.84;76.47
75372;HTU21D;63956;52.006;5.878;2022-10-17T10:53:03;18.83;76.52
75372;HTU21D;63956;52.006;5.878;2022-10-17T10:55:39;18.85;76.48
75372;HTU21D;63956;52.006;5.878;2022-10-17T10:58:20;18.91;76.44
75372;HTU21D;63956;52.006;5.878;2022-10-17T11:00:53;18.92;76.39
75372;HTU21D;63956;52.006;5.878;2022-10-17T11:03:26;18.93;76.43
75372;HTU21D;63956;52.006;5.878;2022-10-17T11:06:02;18.95;76.41
75372;HTU21D;63956;52.006;5.878;2022-10-17T11:08:36;18.98;76.16
75372;HTU21D;63956;52.006;5.878;2022-10-17T11:11:12;18.95;76.19
75372;HTU21D;63956;52.006;5.878;2022-10-17T11:13:46;18.94;76.22
75372;HTU21D;63956;52.006;5.878;2022-10-17T11:16:24;18.95;76.12
75372;HTU21D;63956;52.006;5.878;2022-10-17T11:19:07;18.94;76.28
75372;HTU21D;63956;52.006;5.878;2022-10-17T11:21:47;18.99;76.18
75372;HTU21D;63956;52.006;5.878;2022-10-17T11:24:22;18.98;76.15
75372;HTU21D;63956;52.006;5.878;2022-10-17T11:26:57;18.99;76.13
75372;HTU21D;63956;52.006;5.878;2022-10-17T11:29:29;19.02;76.11
75372;HTU21D;63956;52.006;5.878;2022-10-17T11:32:02;19.03;76.05
75372;HTU21D;63956;52.006;5.878;2022-10-17T11:34:36;19.08;75.96
75372;HTU21D;63956;52.006;5.878;2022-10-17T11:37:14;19.09;76.05
75372;HTU21D;63956;52.006;5.878;2022-10-17T11:39:50;19.12;76.10
75372;HTU21D;63956;52.006;5.878;2022-10-17T11:42:23;19.16;76.00
75372;HTU21D;63956;52.006;5.878;2022-10-17T11:44:58;19.21;76.05
75372;HTU21D;63956;52.006;5.878;2022-10-17T11:47:37;19.26;75.95
75372;HTU21D;63956;52.006;5.878;2022-10-17T11:50:17;19.28;75.98
75372;HTU21D;63956;52.006;5.878;2022-10-17T11:52:51;19.44;75.52
75372;HTU21D;63956;52.006;5.878;2022-10-17T11:55:22;19.40;75.61
75372;HTU21D;63956;52.006;5.878;2022-10-17T11:58:00;19.41;75.65
75372;HTU21D;63956;52.006;5.878;2022-10-17T12:00:42;19.41;75.80
75372;HTU21D;63956;52.006;5.878;2022-10-17T12:03:38;19.39;75.75
75372;HTU21D;63956;52.006;5.878;2022-10-17T12:06:16;19.37;75.79
75372;HTU21D;63956;52.006;5.878;2022-10-17T12:08:56;19.35;75.95
75372;HTU21D;63956;52.006;5.878;2022-10-17T12:11:37;19.36;76.00
75372;HTU21D;63956;52.006;5.878;2022-10-17T12:14:36;19.37;75.90
75372;HTU21D;63956;52.006;5.878;2022-10-17T12:17:29;19.38;75.92
75372;HTU21D;63956;52.006;5.878;2022-10-17T12:20:25;19.37;75.88
75372;HTU21D;63956;52.006;5.878;2022-10-17T12:22:59;19.33;75.97
75372;HTU21D;63956;52.006;5.878;2022-10-17T12:25:33;19.35;76.02
75372;HTU21D;63956;52.006;5.878;2022-10-17T12:28:13;19.40;76.12
75372;HTU21D;63956;52.006;5.878;2022-10-17T12:30:52;19.46;75.89
75372;HTU21D;63956;52.006;5.878;2022-10-17T12:33:31;19.51;75.94
75372;HTU21D;63956;52.006;5.878;2022-10-17T12:42:45;19.54;75.94
75372;HTU21D;63956;52.006;5.878;2022-10-17T12:51:26;19.44;75.89
75372;HTU21D;63956;52.006;5.878;2022-10-17T12:53:58;19.42;75.99
75372;HTU21D;63956;52.006;5.878;2022-10-17T12:56:34;19.41;76.09
75372;HTU21D;63956;52.006;5.878;2022-10-17T12:59:13;19.42;76.22
75372;HTU21D;63956;52.006;5.878;2022-10-17T13:01:46;19.45;75.97
75372;HTU21D;63956;52.006;5.878;2022-10-17T13:04:16;19.46;75.87
75372;HTU21D;63956;52.006;5.878;2022-10-17T13:06:48;19.45;75.96
75372;HTU21D;63956;52.006;5.878;2022-10-17T13:09:24;19.47;76.02
75372;HTU21D;63956;52.006;5.878;2022-10-17T13:11:55;19.48;75.99
75372;HTU21D;63956;52.006;5.878;2022-10-17T13:14:28;19.52;75.83
75372;HTU21D;63956;52.006;5.878;2022-10-17T13:17:01;19.52;75.66
75372;HTU21D;63956;52.006;5.878;2022-10-17T13:19:39;19.50;75.99
75372;HTU21D;63956;52.006;5.878;2022-10-17T13:22:14;19.50;75.92
75372;HTU21D;63956;52.006;5.878;2022-10-17T13:24:45;19.50;75.85
75372;HTU21D;63956;52.006;5.878;2022-10-17T13:27:23;19.54;75.94
75372;HTU21D;63956;52.006;5.878;2022-10-17T13:29:57;19.56;75.73
75372;HTU21D;63956;52.006;5.878;2022-10-17T13:32:36;19.58;75.89
75372;HTU21D;63956;52.006;5.878;2022-10-17T13:35:08;19.56;75.82
75372;HTU21D;63956;52.006;5.878;2022-10-17T13:37:39;19.54;75.93
75372;HTU21D;63956;52.006;5.878;2022-10-17T13:40:15;19.53;75.84
75372;HTU21D;63956;52.006;5.878;2022-10-17T13:42:45;19.53;75.96
75372;HTU21D;63956;52.006;5.878;2022-10-17T13:45:21;19.54;76.08
75372;HTU21D;63956;52.006;5.878;2022-10-17T13:47:52;19.52;75.95
75372;HTU21D;63956;52.006;5.878;2022-10-17T13:50:25;19.54;76.07
75372;HTU21D;63956;52.006;5.878;2022-10-17T13:53:06;19.56;75.96
75372;HTU21D;63956;52.006;5.878;2022-10-17T13:55:36;19.53;75.81
75372;HTU21D;63956;52.006;5.878;2022-10-17T13:58:14;19.53;76.17
75372;HTU21D;63956;52.006;5.878;2022-10-17T14:00:47;19.52;76.12
75372;HTU21D;63956;52.006;5.878;2022-10-17T14:03:19;19.51;76.02
75372;HTU21D;63956;52.006;5.878;2022-10-17T14:06:05;19.52;76.30
75372;HTU21D;63956;52.006;5.878;2022-10-17T14:08:35;19.54;75.99
75372;HTU21D;63956;52.006;5.878;2022-10-17T14:11:22;19.55;76.07
75372;HTU21D;63956;52.006;5.878;2022-10-17T14:13:53;19.54;75.89
75372;HTU21D;63956;52.006;5.878;2022-10-17T14:16:31;19.56;75.99
75372;HTU21D;63956;52.006;5.878;2022-10-17T14:19:01;19.57;75.88
75372;HTU21D;63956;52.006;5.878;2022-10-17T14:21:31;19.59;75.84
75372;HTU21D;63956;52.006;5.878;2022-10-17T14:24:26;19.63;76.04
75372;HTU21D;63956;52.006;5.878;2022-10-17T14:26:58;19.63;75.91
75372;HTU21D;63956;52.006;5.878;2022-10-17T14:29:29;19.62;75.66
75372;HTU21D;63956;52.006;5.878;2022-10-17T14:32:03;19.60;75.94
75372;HTU21D;63956;52.006;5.878;2022-10-17T14:34:35;19.61;75.91
75372;HTU21D;63956;52.006;5.878;2022-10-17T14:37:08;19.63;75.66
75372;HTU21D;63956;52.006;5.878;2022-10-17T14:39:38;19.62;75.83
75372;HTU21D;63956;52.006;5.878;2022-10-17T14:42:16;19.63;75.80
75372;HTU21D;63956;52.006;5.878;2022-10-17T14:44:48;19.63;75.83
75372;HTU21D;63956;52.006;5.878;2022-10-17T14:47:23;19.62;75.89
75372;HTU21D;63956;52.006;5.878;2022-10-17T14:50:04;19.69;75.91
75372;HTU21D;63956;52.006;5.878;2022-10-17T14:52:33;19.81;75.99
75372;HTU21D;63956;52.006;5.878;2022-10-17T14:55:20;19.74;75.89
75372;HTU21D;63956;52.006;5.878;2022-10-17T14:57:50;19.71;75.48
75372;HTU21D;63956;52.006;5.878;2022-10-17T15:00:21;19.72;75.82
75372;HTU21D;63956;52.006;5.878;2022-10-17T15:02:54;19.71;75.70
75372;HTU21D;63956;52.006;5.878;2022-10-17T15:05:23;19.68;75.75
75372;HTU21D;63956;52.006;5.878;2022-10-17T15:07:52;19.69;75.60
75372;HTU21D;63956;52.006;5.878;2022-10-17T15:10:29;19.67;75.85
75372;HTU21D;63956;52.006;5.878;2022-10-17T15:13:00;19.67;75.56
75372;HTU21D;63956;52.006;5.878;2022-10-17T15:15:30;19.63;75.70
75372;HTU21D;63956;52.006;5.878;2022-10-17T15:18:02;19.60;75.80
75372;HTU21D;63956;52.006;5.878;2022-10-17T15:20:32;19.59;75.99
75372;HTU21D;63956;52.006;5.878;2022-10-17T15:23:02;19.61;75.93
75372;HTU21D;63956;52.006;5.878;2022-10-17T15:25:33;19.62;75.95
75372;HTU21D;63956;52.006;5.878;2022-10-17T15:28:02;19.62;75.92
75372;HTU21D;63956;52.006;5.878;2022-10-17T15:30:34;19.68;75.92
75372;HTU21D;63956;52.006;5.878;2022-10-17T15:33:06;19.69;75.70
75372;HTU21D;63956;52.006;5.878;2022-10-17T15:35:35;19.68;75.71
75372;HTU21D;63956;52.006;5.878;2022-10-17T15:38:06;19.68;75.63
75372;HTU21D;63956;52.006;5.878;2022-10-17T15:40:35;19.69;75.75
75372;HTU21D;63956;52.006;5.878;2022-10-17T15:43:04;19.68;75.68
75372;HTU21D;63956;52.006;5.878;2022-10-17T15:45:33;19.66;75.60
75372;HTU21D;63956;52.006;5.878;2022-10-17T15:48:07;19.63;75.78
75372;HTU21D;63956;52.006;5.878;2022-10-17T15:50:44;19.59;75.79
75372;HTU21D;63956;52.006;5.878;2022-10-17T15:53:13;19.59;75.79
75372;HTU21D;63956;52.006;5.878;2022-10-17T15:55:42;19.59;75.71
75372;HTU21D;63956;52.006;5.878;2022-10-17T15:58:14;19.56;75.86
75372;HTU21D;63956;52.006;5.878;2022-10-17T16:00:44;19.54;75.78
75372;HTU21D;63956;52.006;5.878;2022-10-17T16:03:16;19.51;76.08
75372;HTU21D;63956;52.006;5.878;2022-10-17T16:05:45;19.52;75.98
75372;HTU21D;63956;52.006;5.878;2022-10-17T16:08:14;19.50;75.83
75372;HTU21D;63956;52.006;5.878;2022-10-17T16:10:43;19.45;75.89
75372;HTU21D;63956;52.006;5.878;2022-10-17T16:13:16;19.40;76.00
75372;HTU21D;63956;52.006;5.878;2022-10-17T16:15:45;19.35;76.08